Thomasville, Pennsylvania
Current Conditions -  °F | °C
As of 8:53 PM on Monday 20 Oct 2014 (Local Time) from KTHV Reporting Station
Overcast Overcast  
Wind Chill: 52°   Ceiling: 9000
Heat Index: 52°   Visibility: 10mi
Dew Point: 46°   Wind: 0mph
Humidity: 80%   Direction: NA
Pressure: 29.95"   Gusts: NA
Location:  39.93°N, 76.85°W
Report Text: KTHV 210053Z AUTO 00000KT 10SM SCT075 OVC090 11/08 A2995 RMK AO2 SLP145 T01110078
Loading
Personal Weather Stations






























Interactive Weather Map
Tropical Storm Tracking
New forecast layout! Learn more

10-Day Weather Forecast

Advertisements
Track Severe Weather on mobile